Kezdőlap
METAR-TAF:

METAR-TAF

Repülőterek :

Ames, Iowa, Amerikai Egyesült Államok

földrajzi szélesség: 41-59-26N, földrajzi hosszúság: 093-37-08W, magasság: 288 m

Jelenlegi meteorológiai megfigyelések

A jelentés 18 perccel ezelõtt készült, 16:53 UTC
Északnyugati szél 8 kt
Hőmérséklet 6°C
Páratartalom 49%
Légköri nyomás 1016 hPa
Látótávolság: 16.1 km
Derült ég

METAR: KAMW 041653Z AUTO 32008KT 10SM CLR 06/M04 A2999 RMK AO2 SLP161 T00561039

Idő: 11:11 (17:11 UTC)


TAF: hiányzik

Meteorológiai megfigyelések és előrejelzések több, mint 4000 repülőtéren (METAR és TAF jelentéseket).

A térképen piros és sárga pontok jelzik az elérhető meteorológiai állomásokat.

Mozgassa az egeret a pont fölött, hogy megjelenjen az állomás neve.

Azután kattintson az időjárási megfigyelések és előrejelzések megtekintéséhez.

A térkép megváltoztatása: kattintson a fekete keresztel jelölt zöld gombra ráközelítéshez, a vonallal jelölt zöld gombra távolításhoz, vagy a zöld nyilakra a szomszédos térképek eléréséhez.


METAR-TAF: